| time (UTC) | temp F | wind direction | speed knots | gust knots | rain 1hr in | rain 24hr in | rain mn in | humidity % | barometer mb |
| 20260906180006 | 99 | 227 | 1.7 | 12.2 | 0.00 | 0.01 | 0.00 | 41 | 1012.0 |
| 20260906174533 | 99 | 218 | 3.5 | 7.8 | 0.00 | 0.01 | 0.00 | 42 | 1012.2 |
| 20260906173003 | 100 | 242 | 1.7 | 7.0 | 0.00 | 0.01 | 0.00 | 40 | 1012.6 |
| 20260906171529 | 100 | 178 | 2.6 | 10.4 | 0.00 | 0.01 | 0.00 | 40 | 1012.9 |
| 20260906164520 | 98 | 84 | 0.9 | 3.5 | 0.00 | 0.01 | 0.00 | 44 | 1013.3 |
| 20260906163048 | 97 | 188 | 0.0 | 6.1 | 0.00 | 0.01 | 0.00 | 46 | 1013.5 |
| 20260906161533 | 96 | 143 | 1.7 | 5.2 | 0.00 | 0.01 | 0.00 | 47 | 1013.6 |
| 20260906160043 | 96 | 177 | 0.0 | 3.5 | 0.00 | 0.01 | 0.00 | 47 | 1013.5 |
| 20260906154506 | 93 | 194 | 0.9 | 3.5 | 0.00 | 0.01 | 0.00 | 52 | 1013.6 |
| 20260906153042 | 92 | 102 | 0.9 | 3.5 | 0.00 | 0.01 | 0.00 | 57 | 1013.6 |
| 20260906151506 | 92 | 92 | 0.0 | 2.6 | 0.00 | 0.01 | 0.01 | 59 | 1013.5 |
| 20260906150040 | 90 | 186 | 0.9 | 3.5 | 0.00 | 0.01 | 0.01 | 64 | 1013.6 |
| 20260906144514 | 88 | 104 | 0.0 | 1.7 | 0.00 | 0.01 | 0.01 | 67 | 1013.7 |
| 20260906143041 | 87 | 38 | 0.0 | 1.7 | 0.00 | 0.01 | 0.01 | 67 | 1013.6 |
| 20260906141512 | 85 | 147 | 0.0 | 1.7 | 0.00 | 0.01 | 0.01 | 71 | 1013.7 |
| 20260906140046 | 82 | 147 | 0.9 | 1.7 | 0.00 | 0.01 | 0.01 | 73 | 1013.6 |
| 20260906134518 | 80 | 147 | 0.9 | 1.7 | 0.00 | 0.01 | 0.01 | 79 | 1013.4 |
| 20260906133059 | 77 | 147 | 0.0 | 0.0 | 0.00 | 0.01 | 0.01 | 84 | 1013.5 |
| 20260906131524 | 75 | 147 | 0.0 | 1.7 | 0.00 | 0.01 | 0.01 | 91 | 1013.5 |
| 20260906130105 | 73 | 147 | 0.0 | 1.7 | 0.00 | 0.01 | 0.01 | 96 | 1013.3 |
| 20260906124533 | 71 | 147 | 0.0 | 1.7 | 0.00 | 0.01 | 0.01 | 95 | 1013.2 |
| 20260906123016 | 71 | 147 | 0.0 | 0.9 | 0.00 | 0.01 | 0.01 | 95 | 1013.1 |
| 20260906121543 | 71 | 147 | 0.0 | 0.0 | 0.00 | 0.01 | 0.01 | 94 | 1012.9 |
| 20260906120019 | 71 | 147 | 0.0 | 0.9 | 0.00 | 0.01 | 0.01 | 94 | 1012.8 |
| 20260906114553 | 71 | 147 | 0.0 | 0.9 | 0.00 | 0.01 | 0.01 | 94 | 1012.7 |
| 20260906113021 | 71 | 147 | 0.0 | 0.0 | 0.00 | 0.01 | 0.01 | 93 | 1012.7 |
| 20260906111553 | 71 | 147 | 0.0 | 0.0 | 0.00 | 0.01 | 0.01 | 93 | 1012.7 |
| 20260906110024 | 71 | 147 | 0.0 | 0.9 | 0.00 | 0.01 | 0.01 | 92 | 1012.5 |
| 20260906104557 | 72 | 147 | 0.0 | 0.0 | 0.00 | 0.01 | 0.01 | 92 | 1012.5 |
| 20260906103025 | 72 | 147 | 0.9 | 1.7 | 0.00 | 0.01 | 0.01 | 92 | 1012.4 |
| 20260906101600 | 72 | 147 | 0.0 | 0.0 | 0.00 | 0.01 | 0.01 | 90 | 1012.2 |
| 20260906100033 | 72 | 147 | 0.0 | 1.7 | 0.00 | 0.01 | 0.01 | 90 | 1012.3 |
| 20260906094606 | 72 | 147 | 0.0 | 0.0 | 0.00 | 0.01 | 0.01 | 90 | 1012.2 |
| 20260906093029 | 72 | 147 | 0.0 | 0.9 | 0.00 | 0.01 | 0.01 | 90 | 1012.2 |
| 20260906091556 | 73 | 147 | 0.0 | 0.9 | 0.00 | 0.01 | 0.01 | 91 | 1012.0 |
| 20260906090027 | 74 | 147 | 0.0 | 1.7 | 0.00 | 0.01 | 0.01 | 91 | 1011.8 |
| 20260906084602 | 74 | 147 | 0.0 | 2.6 | 0.00 | 0.01 | 0.01 | 91 | 1011.7 |
| 20260906083036 | 74 | 227 | 0.0 | 1.7 | 0.00 | 0.01 | 0.01 | 88 | 1011.8 |
| 20260906081504 | 74 | 227 | 0.0 | 0.0 | 0.00 | 0.01 | 0.01 | 90 | 1011.9 |
| 20260906080041 | 74 | 227 | 0.0 | 1.7 | 0.01 | 0.01 | 0.01 | 88 | 1011.9 |
| 20260906074508 | 74 | 315 | 0.9 | 2.6 | 0.01 | 0.01 | 0.01 | 88 | 1012.0 |
| 20260906073035 | 74 | 355 | 1.7 | 4.3 | 0.01 | 0.01 | 0.01 | 88 | 1012.1 |
| 20260906071501 | 75 | 103 | 0.0 | 7.0 | 0.01 | 0.01 | 0.01 | 84 | 1012.1 |
| 20260906070029 | 76 | 146 | 0.0 | 3.5 | 0.00 | 0.00 | 0.00 | 83 | 1012.1 |
| 20260906064603 | 76 | 186 | 0.0 | 1.7 | 0.00 | 0.00 | 0.00 | 79 | 1012.1 |
| 20260906063036 | 76 | 186 | 0.9 | 2.6 | 0.00 | 0.00 | 0.00 | 79 | 1012.2 |
| 20260906061508 | 76 | 186 | 0.0 | 0.0 | 0.00 | 0.00 | 0.00 | 78 | 1012.1 |
| 20260906060044 | 77 | 186 | 0.9 | 2.6 | 0.00 | 0.00 | 0.00 | 78 | 1012.1 |
| 20260906054509 | 77 | 186 | 0.0 | 1.7 | 0.00 | 0.00 | 0.00 | 77 | 1012.1 |
| 20260906053044 | 77 | 186 | 0.9 | 1.7 | 0.00 | 0.00 | 0.00 | 76 | 1012.1 |
| 20260906051518 | 78 | 186 | 0.0 | 0.9 | 0.00 | 0.00 | 0.00 | 76 | 1011.9 |
| 20260906050052 | 78 | 186 | 0.0 | 1.7 | 0.00 | 0.00 | 0.00 | 75 | 1011.8 |
| 20260906044524 | 78 | 186 | 0.0 | 1.7 | 0.00 | 0.00 | 0.00 | 76 | 1011.8 |
| 20260906043059 | 78 | 186 | 0.0 | 1.7 | 0.00 | 0.00 | 0.00 | 75 | 1011.9 |
| 20260906041535 | 78 | 186 | 0.0 | 1.7 | 0.00 | 0.00 | 0.00 | 75 | 1011.9 |
| 20260906040004 | 78 | 186 | 0.9 | 2.6 | 0.00 | 0.00 | 0.00 | 75 | 1011.8 |
| 20260906034553 | 78 | 186 | 0.0 | 2.6 | 0.00 | 0.00 | 0.00 | 74 | 1011.8 |
| 20260906033005 | 79 | 186 | 1.7 | 3.5 | 0.00 | 0.00 | 0.00 | 72 | 1011.9 |
| 20260906031537 | 80 | 243 | 0.0 | 0.0 | 0.00 | 0.00 | 0.00 | 71 | 1011.7 |
| 20260906030004 | 81 | 243 | 0.0 | 0.0 | 0.00 | 0.00 | 0.00 | 70 | 1011.5 |
| 20260906024536 | 81 | 243 | 0.0 | 0.0 | 0.00 | 0.00 | 0.00 | 69 | 1011.5 |
| 20260906023100 | 82 | 243 | 0.0 | 1.7 | 0.00 | 0.00 | 0.00 | 67 | 1011.4 |
| 20260906021537 | 83 | 218 | 0.0 | 1.7 | 0.00 | 0.00 | 0.00 | 65 | 1011.1 |
| 20260906020059 | 84 | 218 | 0.0 | 0.0 | 0.00 | 0.00 | 0.00 | 64 | 1010.6 |
| 20260906014523 | 85 | 218 | 0.0 | 0.0 | 0.00 | 0.00 | 0.00 | 59 | 1010.3 |
| 20260906013049 | 87 | 218 | 0.0 | 0.0 | 0.00 | 0.00 | 0.00 | 58 | 1010.4 |
| 20260906011511 | 89 | 218 | 0.0 | 0.0 | 0.00 | 0.00 | 0.00 | 54 | 1010.2 |
| 20260906010045 | 90 | 218 | 0.0 | 0.0 | 0.00 | 0.00 | 0.00 | 51 | 1010.1 |
| 20260906004503 | 93 | 218 | 0.0 | 0.0 | 0.00 | 0.00 | 0.00 | 48 | 1010.0 |
| 20260906003038 | 96 | 218 | 0.0 | 2.6 | 0.00 | 0.00 | 0.00 | 44 | 1010.1 |
| 20260906001514 | 97 | 234 | 1.7 | 4.3 | 0.00 | 0.00 | 0.00 | 41 | 1010.1 |
| 20260906000043 | 99 | 232 | 1.7 | 4.3 | 0.00 | 0.00 | 0.00 | 39 | 1010.1 |
| 20260905234518 | 99 | 232 | 2.6 | 4.3 | 0.00 | 0.00 | 0.00 | 39 | 1010.2 |
| 20260905233051 | 99 | 250 | 0.9 | 3.5 | 0.00 | 0.00 | 0.00 | 39 | 1010.1 |
| 20260905231523 | 99 | 282 | 0.0 | 3.5 | 0.00 | 0.00 | 0.00 | 38 | 1010.1 |
| 20260905230054 | 99 | 319 | 2.6 | 5.2 | 0.00 | 0.00 | 0.00 | 38 | 1010.1 |
| 20260905224524 | 99 | 5 | 0.9 | 5.2 | 0.00 | 0.00 | 0.00 | 38 | 1010.0 |
| 20260905223057 | 99 | 13 | 0.0 | 3.5 | 0.00 | 0.00 | 0.00 | 38 | 1009.9 |
| 20260905221524 | 100 | 229 | 2.6 | 7.0 | 0.00 | 0.00 | 0.00 | 38 | 1010.0 |
| 20260905220059 | 100 | 159 | 1.7 | 7.0 | 0.00 | 0.00 | 0.00 | 39 | 1010.1 |
| 20260905214526 | 100 | 173 | 5.2 | 8.7 | 0.00 | 0.00 | 0.00 | 39 | 1010.2 |
| 20260905213058 | 99 | 102 | 2.6 | 7.0 | 0.00 | 0.00 | 0.00 | 39 | 1010.3 |
| 20260905211528 | 99 | 126 | 0.0 | 7.8 | 0.00 | 0.00 | 0.00 | 38 | 1010.4 |
| 20260905210117 | 99 | 92 | 1.7 | 5.2 | 0.00 | 0.00 | 0.00 | 39 | 1010.7 |
| 20260905204534 | 100 | 225 | 1.7 | 4.3 | 0.00 | 0.00 | 0.00 | 38 | 1011.0 |
| 20260905203001 | 101 | 255 | 2.6 | 6.1 | 0.00 | 0.00 | 0.00 | 38 | 1011.2 |
| 20260905201533 | 101 | 262 | 3.5 | 15.6 | 0.00 | 0.00 | 0.00 | 38 | 1011.5 |
| 20260905200127 | 100 | 173 | 2.6 | 5.2 | 0.00 | 0.00 | 0.00 | 39 | 1011.6 |
| 20260905194528 | 99 | 187 | 2.6 | 5.2 | 0.00 | 0.00 | 0.00 | 40 | 1011.9 |
| 20260905193058 | 99 | 90 | 0.9 | 5.2 | 0.00 | 0.00 | 0.00 | 40 | 1011.9 |
| 20260905191530 | 99 | 211 | 3.5 | 7.0 | 0.00 | 0.00 | 0.00 | 41 | 1012.1 |
| 20260905190002 | 98 | 194 | 4.3 | 8.7 | 0.00 | 0.00 | 0.00 | 43 | 1012.3 |
| 20260905184537 | 97 | 142 | 1.7 | 3.5 | 0.00 | 0.00 | 0.00 | 42 | 1012.5 |
| 20260905183100 | 98 | 166 | 3.5 | 7.8 | 0.00 | 0.00 | 0.00 | 43 | 1012.8 |
| 20260905181538 | 98 | 225 | 1.7 | 4.3 | 0.00 | 0.00 | 0.00 | 44 | 1013.0 |